createdAt,value
2023-03-04T00:01:35.469Z,61.90
2023-03-04T00:04:03.898Z,60.78
2023-03-04T00:06:33.515Z,59.91
2023-03-04T00:09:03.906Z,60.64
2023-03-04T00:11:32.498Z,61.67
2023-03-04T00:14:00.651Z,61.28
2023-03-04T00:16:28.733Z,60.74
2023-03-04T00:18:57.883Z,59.94
2023-03-04T00:21:26.117Z,60.62
2023-03-04T00:23:55.539Z,60.25
2023-03-04T00:26:24.012Z,59.94
2023-03-04T00:28:52.394Z,60.02
2023-03-04T00:31:20.511Z,59.89
2023-03-04T00:33:48.796Z,60.38
2023-03-04T00:36:16.836Z,60.74
2023-03-04T00:38:44.821Z,60.73
2023-03-04T00:41:14.550Z,61.38
2023-03-04T00:43:42.941Z,60.75
2023-03-04T00:46:11.355Z,60.09
2023-03-04T00:48:39.797Z,59.74
2023-03-04T00:51:07.882Z,59.74
2023-03-04T00:53:36.127Z,60.96
2023-03-04T00:56:04.977Z,60.40
2023-03-04T00:58:34.305Z,60.61
2023-03-04T01:01:02.567Z,60.64
2023-03-04T01:03:32.650Z,60.63
2023-03-04T01:06:00.935Z,60.13
2023-03-04T01:08:29.048Z,60.71
2023-03-04T01:10:57.401Z,60.68
2023-03-04T01:13:25.564Z,60.41
2023-03-04T01:15:56.014Z,60.77
2023-03-04T01:18:24.319Z,60.04
2023-03-04T01:20:52.868Z,60.47
2023-03-04T01:23:21.077Z,60.22
2023-03-04T01:25:49.622Z,60.38
2023-03-04T01:28:17.742Z,60.80
2023-03-04T01:30:45.742Z,60.80
2023-03-04T01:33:15.335Z,60.20
2023-03-04T01:35:43.638Z,60.99
2023-03-04T01:38:12.711Z,60.13
2023-03-04T01:40:41.335Z,60.01
2023-03-04T01:43:16.497Z,60.07
2023-03-04T01:45:44.932Z,60.58
2023-03-04T01:48:19.579Z,60.14
2023-03-04T01:50:48.122Z,60.23
2023-03-04T01:53:21.828Z,59.60
2023-03-04T01:55:51.347Z,60.03
2023-03-04T01:58:19.514Z,60.04
2023-03-04T02:00:47.596Z,60.69
2023-03-04T02:03:20.693Z,60.20
2023-03-04T02:05:51.414Z,60.12
2023-03-04T02:08:22.004Z,60.83
2023-03-04T02:10:52.054Z,60.12
2023-03-04T02:13:21.076Z,59.92
2023-03-04T02:15:49.596Z,60.19
2023-03-04T02:18:21.209Z,59.62
2023-03-04T02:21:01.661Z,59.54
2023-03-04T02:23:36.297Z,59.90
2023-03-04T02:26:17.370Z,59.73
2023-03-04T02:28:46.802Z,60.62
2023-03-04T02:31:24.665Z,60.17
2023-03-04T02:33:54.818Z,60.22
2023-03-04T02:36:24.430Z,60.34
2023-03-04T02:38:54.765Z,59.98
2023-03-04T02:41:27.256Z,59.72
2023-03-04T02:43:56.565Z,59.58
2023-03-04T02:46:25.578Z,59.51
2023-03-04T02:48:53.885Z,59.78
2023-03-04T02:51:22.276Z,59.43
2023-03-04T02:53:50.590Z,59.90
2023-03-04T02:56:18.834Z,59.39
2023-03-04T02:58:48.363Z,59.48
2023-03-04T03:01:16.691Z,59.34
2023-03-04T03:03:45.426Z,59.48
2023-03-04T03:06:13.418Z,59.43
2023-03-04T03:08:41.899Z,59.46
2023-03-04T03:11:09.985Z,59.15
2023-03-04T03:13:38.393Z,59.08
2023-03-04T03:16:08.334Z,59.54
2023-03-04T03:18:36.394Z,59.96
2023-03-04T03:21:07.184Z,59.23
2023-03-04T03:23:35.975Z,58.95
2023-03-04T03:26:04.472Z,59.15
2023-03-04T03:28:32.640Z,58.78
2023-03-04T03:31:01.458Z,59.25
2023-03-04T03:33:34.858Z,59.68
2023-03-04T03:36:03.340Z,59.97
2023-03-04T03:38:31.617Z,59.39
2023-03-04T03:40:59.702Z,59.29
2023-03-04T03:43:28.190Z,59.00
2023-03-04T03:45:56.322Z,59.27
2023-03-04T03:48:24.455Z,59.30
2023-03-04T03:50:54.081Z,58.91
2023-03-04T03:53:22.080Z,58.99
2023-03-04T03:55:50.090Z,58.75
2023-03-04T03:58:18.318Z,58.62
2023-03-04T04:00:46.353Z,58.62
2023-03-04T04:03:16.463Z,58.77
2023-03-04T04:05:44.884Z,58.53
2023-03-04T04:08:15.505Z,58.35
2023-03-04T04:10:44.701Z,58.40
2023-03-04T04:13:12.992Z,58.47
2023-03-04T04:15:41.054Z,58.41
2023-03-04T04:18:09.751Z,58.43
2023-03-04T04:20:38.557Z,58.50
2023-03-04T04:23:06.709Z,58.14
2023-03-04T04:25:36.337Z,58.44
2023-03-04T04:28:04.844Z,58.59
2023-03-04T04:30:32.946Z,58.47
2023-03-04T04:33:04.683Z,58.32
2023-03-04T04:35:33.372Z,58.13
2023-03-04T04:38:01.897Z,58.18
2023-03-04T04:40:30.064Z,58.21
2023-03-04T04:42:59.516Z,57.97
2023-03-04T04:45:28.133Z,58.09
2023-03-04T04:47:57.524Z,57.93
2023-03-04T04:50:25.821Z,58.02
2023-03-04T04:52:54.334Z,58.77
2023-03-04T04:55:22.470Z,58.48
2023-03-04T04:57:51.358Z,58.18
2023-03-04T05:00:21.839Z,58.27
2023-03-04T05:02:50.415Z,59.00
2023-03-04T05:05:18.879Z,58.19
2023-03-04T05:07:47.136Z,58.60
2023-03-04T05:10:15.569Z,58.71
2023-03-04T05:12:45.275Z,58.51
2023-03-04T05:15:13.784Z,58.13
2023-03-04T05:17:43.314Z,58.97
2023-03-04T05:20:12.533Z,58.58
2023-03-04T05:22:41.332Z,58.87
2023-03-04T05:25:10.649Z,58.53
2023-03-04T05:27:38.720Z,59.07
2023-03-04T05:30:08.230Z,58.68
2023-03-04T05:32:36.516Z,58.84
2023-03-04T05:35:06.954Z,58.40
2023-03-04T05:37:35.932Z,58.32
2023-03-04T05:40:04.866Z,58.48
2023-03-04T05:42:33.229Z,58.18
2023-03-04T05:45:01.504Z,58.10
2023-03-04T05:47:29.490Z,58.00
2023-03-04T05:49:58.126Z,57.84
2023-03-04T05:52:27.752Z,58.33
2023-03-04T05:54:55.745Z,58.23
2023-03-04T05:57:23.725Z,58.09
2023-03-04T05:59:52.021Z,58.35
2023-03-04T06:02:20.104Z,57.89
2023-03-04T06:04:48.376Z,58.21
2023-03-04T06:07:16.683Z,57.94
2023-03-04T06:09:46.168Z,58.26
2023-03-04T06:12:14.555Z,58.18
2023-03-04T06:14:42.581Z,57.81
2023-03-04T06:17:10.509Z,57.85
2023-03-04T06:19:39.024Z,57.70
2023-03-04T06:22:06.983Z,57.63
2023-03-04T06:24:35.164Z,58.19
2023-03-04T06:27:05.939Z,57.98
2023-03-04T06:29:34.125Z,58.21
2023-03-04T06:32:02.094Z,57.90
2023-03-04T06:34:30.423Z,57.90
2023-03-04T06:36:58.383Z,57.90
2023-03-04T06:39:26.550Z,57.83
2023-03-04T06:41:54.961Z,57.75
2023-03-04T06:44:31.115Z,57.78
2023-03-04T06:47:05.533Z,58.37
2023-03-04T06:49:33.605Z,58.58
2023-03-04T06:52:02.037Z,58.33
2023-03-04T06:54:30.893Z,59.51
2023-03-04T06:57:01.353Z,58.81
2023-03-04T06:59:31.140Z,59.26
2023-03-04T07:01:59.765Z,59.04
2023-03-04T07:04:33.989Z,59.08
2023-03-04T07:07:02.615Z,60.11
2023-03-04T07:09:37.009Z,59.99
2023-03-04T07:12:06.138Z,59.78
2023-03-04T07:14:36.887Z,59.67
2023-03-04T07:17:05.173Z,60.16
2023-03-04T07:19:33.235Z,59.87
2023-03-04T07:22:01.318Z,59.41
2023-03-04T07:24:29.634Z,59.92
2023-03-04T07:26:57.626Z,59.44
2023-03-04T07:29:25.693Z,59.34
2023-03-04T07:31:55.591Z,59.87
2023-03-04T07:34:23.889Z,59.72
2023-03-04T07:36:51.938Z,59.23
2023-03-04T07:39:20.202Z,60.20
2023-03-04T07:41:48.189Z,59.54
2023-03-04T07:44:16.257Z,59.09
2023-03-04T07:46:44.637Z,59.10
2023-03-04T07:49:14.877Z,59.11
2023-03-04T07:51:43.072Z,58.71
2023-03-04T07:54:12.145Z,59.49
2023-03-04T07:56:40.593Z,59.19
2023-03-04T07:59:08.756Z,59.28
2023-03-04T08:01:38.668Z,59.73
2023-03-04T08:04:08.659Z,59.26
2023-03-04T08:06:38.082Z,59.10
2023-03-04T08:09:08.006Z,59.18
2023-03-04T08:11:38.520Z,59.08
2023-03-04T08:14:07.216Z,58.92
2023-03-04T08:16:35.203Z,58.67
2023-03-04T08:19:04.768Z,58.44
2023-03-04T08:21:33.368Z,58.85
2023-03-04T08:24:08.520Z,59.40
2023-03-04T08:26:41.334Z,58.73
2023-03-04T08:29:11.214Z,58.80
2023-03-04T08:31:40.374Z,58.51
2023-03-04T08:34:10.238Z,58.61
2023-03-04T08:36:38.341Z,58.88
2023-03-04T08:39:07.977Z,58.25
2023-03-04T08:41:36.138Z,58.24
2023-03-04T08:44:04.411Z,58.47
2023-03-04T08:46:32.764Z,58.09
2023-03-04T08:49:00.863Z,58.53
2023-03-04T08:51:28.998Z,58.11
2023-03-04T08:53:57.298Z,57.89
2023-03-04T08:56:26.718Z,58.15
2023-03-04T08:58:54.775Z,57.79
2023-03-04T09:01:23.211Z,57.64
2023-03-04T09:03:51.410Z,58.05
2023-03-04T09:06:19.897Z,57.67
2023-03-04T09:08:48.161Z,57.52
2023-03-04T09:11:16.739Z,57.67
2023-03-04T09:13:46.150Z,57.39
2023-03-04T09:16:16.049Z,57.79
2023-03-04T09:18:44.578Z,57.80
2023-03-04T09:21:12.753Z,57.45
2023-03-04T09:23:41.037Z,57.25
2023-03-04T09:26:17.596Z,57.21
2023-03-04T09:28:47.128Z,56.92
2023-03-04T09:31:15.663Z,56.93
2023-03-04T09:33:43.931Z,56.84
2023-03-04T09:36:13.866Z,57.45
2023-03-04T09:38:43.570Z,57.02
2023-03-04T09:41:17.820Z,57.13
2023-03-04T09:43:48.422Z,57.25
2023-03-04T09:46:19.433Z,56.64
2023-03-04T09:48:50.943Z,57.48
2023-03-04T09:51:23.104Z,56.70
2023-03-04T09:54:07.574Z,56.68
2023-03-04T09:56:39.242Z,56.30
2023-03-04T09:59:19.376Z,56.86
2023-03-04T10:01:51.943Z,56.77
2023-03-04T10:04:32.870Z,56.72
2023-03-04T10:07:02.253Z,56.06
2023-03-04T10:09:38.700Z,56.70
2023-03-04T10:12:13.054Z,56.60
2023-03-04T10:14:51.192Z,57.06
2023-03-04T10:17:23.568Z,57.98
2023-03-04T10:20:03.016Z,57.89
2023-03-04T10:22:36.236Z,57.56
2023-03-04T10:25:17.542Z,58.03
2023-03-04T10:27:51.636Z,57.59
2023-03-04T10:30:31.854Z,57.43
2023-03-04T10:32:59.991Z,56.58
2023-03-04T10:35:35.407Z,56.41
2023-03-04T10:38:04.962Z,56.20
2023-03-04T10:40:39.748Z,56.07
2023-03-04T10:43:14.657Z,56.17
2023-03-04T10:45:44.607Z,56.26
2023-03-04T10:48:21.280Z,56.37
2023-03-04T10:50:49.818Z,56.26
2023-03-04T10:53:34.379Z,56.54
2023-03-04T10:56:03.147Z,56.57
2023-03-04T10:58:35.972Z,56.00
2023-03-04T11:01:07.409Z,55.76
2023-03-04T11:03:37.634Z,55.82
2023-03-04T11:06:13.493Z,55.86
2023-03-04T11:08:42.288Z,55.19
2023-03-04T11:11:24.892Z,55.35
2023-03-04T11:13:57.268Z,54.66
2023-03-04T11:16:29.676Z,54.93
2023-03-04T11:19:03.945Z,54.05
2023-03-04T11:21:40.258Z,54.15
2023-03-04T11:24:27.604Z,53.89
2023-03-04T11:27:04.544Z,53.62
2023-03-04T11:29:37.171Z,53.47
2023-03-04T11:32:14.197Z,53.63
2023-03-04T11:34:51.328Z,53.91
2023-03-04T11:37:26.389Z,53.10
2023-03-04T11:39:59.483Z,53.25
2023-03-04T11:42:36.389Z,54.48
2023-03-04T11:45:05.198Z,54.37
2023-03-04T11:47:50.547Z,54.47
2023-03-04T11:50:28.875Z,53.98
2023-03-04T11:53:34.631Z,53.92
2023-03-04T11:56:27.984Z,54.42
2023-03-04T11:59:27.276Z,55.11
2023-03-04T12:02:11.883Z,54.85
2023-03-04T12:05:26.114Z,55.17
2023-03-04T12:08:12.195Z,54.89
2023-03-04T12:10:46.029Z,54.39
2023-03-04T12:13:34.783Z,54.13
2023-03-04T12:16:19.485Z,54.14
2023-03-04T12:19:02.429Z,53.04
2023-03-04T12:21:57.543Z,52.91
2023-03-04T12:24:49.054Z,52.56
2023-03-04T12:27:25.340Z,52.63
2023-03-04T12:29:59.776Z,52.24
2023-03-04T12:32:38.049Z,52.46
2023-03-04T12:35:24.910Z,51.97
2023-03-04T12:38:18.441Z,52.39
2023-03-04T12:40:53.792Z,52.37
2023-03-04T12:43:43.119Z,52.61
2023-03-04T12:46:24.210Z,52.71
2023-03-04T12:49:03.709Z,52.40
2023-03-04T12:51:37.418Z,52.82
2023-03-04T12:54:26.019Z,53.16
2023-03-04T12:56:58.469Z,52.68
2023-03-04T12:59:29.894Z,53.10
2023-03-04T13:02:11.070Z,52.98
2023-03-04T13:04:51.636Z,52.65
2023-03-04T13:07:34.682Z,53.13
2023-03-04T13:10:11.712Z,52.85
2023-03-04T13:12:50.985Z,52.82
2023-03-04T13:15:32.849Z,52.42
2023-03-04T13:18:02.933Z,52.00
2023-03-04T13:20:38.239Z,52.66
2023-03-04T13:23:26.861Z,52.72
2023-03-04T13:26:21.501Z,52.56
2023-03-04T13:28:55.183Z,52.78
2023-03-04T13:31:30.045Z,53.18
2023-03-04T13:34:01.469Z,52.67
2023-03-04T13:36:54.946Z,53.29
2023-03-04T13:39:26.505Z,52.65
2023-03-04T13:41:57.654Z,52.85
2023-03-04T13:45:01.155Z,52.70
2023-03-04T13:47:46.365Z,52.17
2023-03-04T13:50:29.856Z,52.32
2023-03-04T13:53:02.004Z,52.40
2023-03-04T13:55:40.061Z,52.60
2023-03-04T13:58:21.436Z,52.46
2023-03-04T14:00:51.962Z,52.34
2023-03-04T14:03:23.686Z,52.52
2023-03-04T14:06:13.644Z,52.53
2023-03-04T14:08:49.050Z,52.44
2023-03-04T14:11:25.312Z,52.45
2023-03-04T14:13:58.102Z,52.58
2023-03-04T14:16:30.027Z,52.90
2023-03-04T14:19:00.706Z,53.76
2023-03-04T14:21:29.714Z,53.59
2023-03-04T14:24:03.809Z,53.76
2023-03-04T14:26:33.114Z,54.11
2023-03-04T14:29:04.457Z,54.50
2023-03-04T14:31:36.913Z,54.45
2023-03-04T14:34:08.687Z,54.11
2023-03-04T14:36:44.953Z,53.98
2023-03-04T14:39:17.775Z,54.10
2023-03-04T14:41:51.248Z,53.52
2023-03-04T14:44:30.290Z,53.30
2023-03-04T14:47:11.079Z,53.31
2023-03-04T14:49:42.397Z,53.02
2023-03-04T14:52:38.237Z,53.11
2023-03-04T14:55:22.193Z,52.31
2023-03-04T14:57:58.209Z,52.35
2023-03-04T15:00:31.026Z,52.81
2023-03-04T15:03:00.977Z,52.62
2023-03-04T15:05:32.057Z,53.23
2023-03-04T15:08:02.846Z,53.21
2023-03-04T15:10:33.089Z,53.23
2023-03-04T15:13:03.974Z,52.82
2023-03-04T15:15:42.564Z,52.80
2023-03-04T15:18:19.956Z,52.03
2023-03-04T15:20:55.240Z,51.65
2023-03-04T15:23:23.495Z,52.06
2023-03-04T15:25:57.112Z,51.70
2023-03-04T15:28:26.500Z,51.56
2023-03-04T15:30:55.922Z,51.61
2023-03-04T15:33:24.583Z,51.75
2023-03-04T15:35:56.994Z,50.91
2023-03-04T15:38:25.877Z,51.16
2023-03-04T15:40:55.087Z,51.16
2023-03-04T15:43:24.582Z,51.58
2023-03-04T15:45:54.124Z,51.20
2023-03-04T15:48:23.696Z,51.56
2023-03-04T15:50:56.696Z,51.76
2023-03-04T15:53:33.376Z,51.65
2023-03-04T15:56:03.066Z,52.27
2023-03-04T15:58:35.018Z,52.73
2023-03-04T16:01:03.728Z,52.72
2023-03-04T16:03:33.772Z,52.64
2023-03-04T16:06:01.941Z,51.79
2023-03-04T16:08:30.023Z,52.31
2023-03-04T16:10:58.326Z,52.47
2023-03-04T16:13:26.306Z,52.63
2023-03-04T16:15:54.367Z,52.24
2023-03-04T16:18:23.760Z,52.40
2023-03-04T16:20:53.329Z,52.29
2023-03-04T16:23:24.002Z,52.80
2023-03-04T16:25:56.157Z,53.21
2023-03-04T16:28:24.644Z,53.81
2023-03-04T16:30:53.088Z,53.67
2023-03-04T16:33:21.133Z,53.92
2023-03-04T16:35:51.573Z,53.41
2023-03-04T16:38:26.164Z,53.11
2023-03-04T16:40:55.390Z,52.92
2023-03-04T16:43:23.882Z,52.87
2023-03-04T16:45:52.070Z,52.74
2023-03-04T16:48:21.078Z,52.84
2023-03-04T16:50:49.358Z,52.86
2023-03-04T16:53:34.758Z,53.09
2023-03-04T16:56:06.660Z,53.53
2023-03-04T16:58:35.022Z,53.63
2023-03-04T17:01:03.942Z,53.65
2023-03-04T17:03:32.103Z,54.24
2023-03-04T17:06:00.181Z,54.84
2023-03-04T17:08:29.705Z,56.87
2023-03-04T17:10:57.913Z,57.25
2023-03-04T17:13:25.909Z,57.22
2023-03-04T17:15:54.308Z,56.84
2023-03-04T17:18:22.335Z,56.25
2023-03-04T17:20:50.335Z,56.53
2023-03-04T17:23:18.576Z,56.38
2023-03-04T17:25:56.367Z,57.07
2023-03-04T17:28:24.618Z,56.29
2023-03-04T17:30:52.735Z,56.33
2023-03-04T17:33:20.898Z,57.09
2023-03-04T17:35:49.294Z,56.62
2023-03-04T17:38:17.386Z,57.43
2023-03-04T17:40:45.662Z,57.05
2023-03-04T17:43:15.287Z,56.80
2023-03-04T17:45:44.164Z,57.33
2023-03-04T17:48:15.131Z,56.70
2023-03-04T17:50:50.020Z,57.48
2023-03-04T17:53:18.449Z,57.29
2023-03-04T17:55:50.620Z,57.01
2023-03-04T17:58:20.235Z,56.88
2023-03-04T18:00:53.503Z,57.00
2023-03-04T18:03:22.069Z,56.82
2023-03-04T18:05:50.146Z,56.46
2023-03-04T18:08:18.440Z,56.55
2023-03-04T18:10:46.850Z,56.08
2023-03-04T18:13:15.114Z,56.07
2023-03-04T18:15:44.716Z,55.96
2023-03-04T18:18:13.240Z,56.85
2023-03-04T18:20:41.592Z,56.69
2023-03-04T18:23:09.783Z,56.57
2023-03-04T18:25:38.180Z,56.00
2023-03-04T18:28:06.760Z,56.12
2023-03-04T18:30:35.054Z,56.58
2023-03-04T18:33:04.952Z,56.09
2023-03-04T18:35:33.519Z,56.36
2023-03-04T18:38:01.802Z,56.28
2023-03-04T18:40:31.618Z,56.42
2023-03-04T18:43:00.196Z,57.07
2023-03-04T18:45:28.784Z,58.32
2023-03-04T18:47:57.921Z,57.50
2023-03-04T18:50:27.416Z,57.13
2023-03-04T18:52:55.624Z,56.51
2023-03-04T18:55:24.704Z,55.98
2023-03-04T18:57:56.264Z,55.56
2023-03-04T19:00:25.872Z,55.98
2023-03-04T19:02:58.865Z,57.07
2023-03-04T19:05:31.440Z,57.49
2023-03-04T19:07:59.819Z,58.15
2023-03-04T19:10:29.111Z,57.84
2023-03-04T19:12:59.450Z,57.22
2023-03-04T19:15:28.094Z,56.81
2023-03-04T19:17:56.080Z,56.61
2023-03-04T19:20:24.286Z,57.06
2023-03-04T19:22:54.619Z,56.67
2023-03-04T19:25:22.829Z,56.75
2023-03-04T19:27:55.237Z,57.84
2023-03-04T19:30:23.996Z,57.53
2023-03-04T19:32:52.102Z,57.28
2023-03-04T19:35:20.475Z,57.11
2023-03-04T19:37:48.755Z,56.59
2023-03-04T19:40:18.454Z,56.43
2023-03-04T19:42:46.595Z,56.72
2023-03-04T19:45:14.978Z,55.92
2023-03-04T19:47:43.102Z,56.21
2023-03-04T19:50:13.531Z,56.00
2023-03-04T19:52:41.807Z,56.05
2023-03-04T19:55:12.756Z,55.42
2023-03-04T19:57:42.755Z,55.54
2023-03-04T20:00:13.049Z,55.63
2023-03-04T20:02:43.081Z,55.54
2023-03-04T20:05:12.389Z,55.28
2023-03-04T20:07:40.974Z,54.93
2023-03-04T20:10:11.325Z,55.08
2023-03-04T20:12:39.330Z,55.23
2023-03-04T20:15:09.940Z,54.99
2023-03-04T20:17:38.140Z,54.80
2023-03-04T20:20:10.552Z,55.01
2023-03-04T20:22:39.502Z,54.71
2023-03-04T20:25:07.927Z,54.56
2023-03-04T20:27:35.964Z,54.71
2023-03-04T20:30:04.918Z,54.04
2023-03-04T20:32:34.387Z,53.98
2023-03-04T20:35:02.378Z,54.21
2023-03-04T20:37:30.690Z,53.79
2023-03-04T20:39:58.875Z,54.01
2023-03-04T20:42:26.942Z,53.68
2023-03-04T20:44:55.252Z,53.51
2023-03-04T20:47:23.210Z,53.63
2023-03-04T20:49:53.540Z,53.79
2023-03-04T20:52:21.845Z,53.42
2023-03-04T20:54:50.111Z,53.43
2023-03-04T20:57:18.541Z,53.45
2023-03-04T20:59:46.802Z,54.03
2023-03-04T21:02:17.100Z,53.86
2023-03-04T21:04:45.461Z,54.49
2023-03-04T21:07:15.269Z,54.11
2023-03-04T21:09:43.980Z,54.57
2023-03-04T21:12:11.987Z,54.70
2023-03-04T21:14:40.740Z,54.66
2023-03-04T21:17:08.820Z,54.67
2023-03-04T21:19:40.011Z,54.56
2023-03-04T21:22:08.699Z,54.63
2023-03-04T21:24:39.824Z,54.59
2023-03-04T21:27:08.509Z,54.65
2023-03-04T21:29:37.226Z,54.85
2023-03-04T21:32:22.696Z,55.12
2023-03-04T21:34:54.468Z,54.72
2023-03-04T21:37:23.866Z,54.76
2023-03-04T21:39:54.217Z,54.61
2023-03-04T21:42:22.351Z,54.35
2023-03-04T21:44:51.650Z,54.89
2023-03-04T21:47:20.395Z,54.41
2023-03-04T21:49:48.935Z,54.35
2023-03-04T21:52:17.980Z,53.66
2023-03-04T21:54:46.316Z,53.46
2023-03-04T21:57:15.942Z,53.23
2023-03-04T21:59:43.938Z,52.62
2023-03-04T22:02:15.551Z,52.39
2023-03-04T22:04:43.980Z,52.51
2023-03-04T22:07:12.450Z,52.27
2023-03-04T22:09:40.792Z,52.32
2023-03-04T22:12:09.263Z,52.63
2023-03-04T22:14:39.472Z,52.08
2023-03-04T22:17:07.823Z,52.20
2023-03-04T22:19:36.133Z,51.49
2023-03-04T22:22:04.103Z,51.37
2023-03-04T22:24:32.143Z,51.97
2023-03-04T22:27:00.373Z,51.37
2023-03-04T22:29:28.844Z,51.26
2023-03-04T22:31:58.320Z,51.51
2023-03-04T22:34:26.738Z,51.78
2023-03-04T22:36:54.782Z,51.50
2023-03-04T22:39:23.458Z,51.45
2023-03-04T22:41:51.810Z,51.44
2023-03-04T22:44:20.043Z,51.32
2023-03-04T22:46:48.366Z,51.06
2023-03-04T22:49:18.165Z,51.06
2023-03-04T22:51:46.362Z,51.43
2023-03-04T22:54:15.871Z,50.99
2023-03-04T22:56:44.332Z,50.83
2023-03-04T22:59:12.817Z,51.04
2023-03-04T23:01:41.023Z,51.24
2023-03-04T23:04:10.824Z,50.75
2023-03-04T23:06:40.168Z,51.10
2023-03-04T23:09:08.442Z,51.14
2023-03-04T23:11:37.117Z,51.49
2023-03-04T23:14:07.256Z,51.04
2023-03-04T23:16:37.330Z,50.85
2023-03-04T23:19:06.538Z,50.84
2023-03-04T23:21:38.142Z,51.21
2023-03-04T23:24:10.007Z,51.30
2023-03-04T23:26:40.257Z,51.16
2023-03-04T23:29:10.425Z,51.19
2023-03-04T23:31:38.758Z,51.34
2023-03-04T23:34:07.153Z,51.39
2023-03-04T23:36:37.483Z,51.01
2023-03-04T23:39:08.068Z,51.09
2023-03-04T23:41:37.147Z,50.63
2023-03-04T23:44:05.764Z,50.72
2023-03-04T23:46:34.050Z,50.85
2023-03-04T23:49:02.431Z,51.98
2023-03-04T23:51:31.289Z,51.81
2023-03-04T23:53:59.933Z,51.98
2023-03-04T23:56:31.635Z,52.15
2023-03-04T23:59:00.731Z,52.12
